createdAt,value
2019-01-05T00:02:29.995Z,26.50
2019-01-05T00:05:19.968Z,25.50
2019-01-05T00:08:06.636Z,25.23
2019-01-05T00:10:57.363Z,24.87
2019-01-05T00:13:54.306Z,24.77
2019-01-05T00:16:45.657Z,24.27
2019-01-05T00:19:46.300Z,23.93
2019-01-05T00:22:37.159Z,24.40
2019-01-05T00:25:27.890Z,23.77
2019-01-05T00:28:24.811Z,22.20
2019-01-05T00:31:23.195Z,24.23
2019-01-05T00:34:28.048Z,23.30
2019-01-05T00:37:23.393Z,23.20
2019-01-05T00:40:21.042Z,23.50
2019-01-05T00:43:14.951Z,22.90
2019-01-05T00:46:05.958Z,23.60
2019-01-05T00:48:57.706Z,22.47
2019-01-05T00:52:11.341Z,23.73
2019-01-05T00:55:02.740Z,23.23
2019-01-05T00:57:55.804Z,21.83
2019-01-05T01:00:46.966Z,22.20
2019-01-05T01:03:43.603Z,22.97
2019-01-05T01:06:42.113Z,22.17
2019-01-05T01:09:31.664Z,20.90
2019-01-05T01:12:22.538Z,21.70
2019-01-05T01:15:11.896Z,19.23
2019-01-05T01:18:02.643Z,18.97
2019-01-05T01:20:50.468Z,19.33
2019-01-05T01:23:40.327Z,18.40
2019-01-05T01:26:29.482Z,18.97
2019-01-05T01:29:23.665Z,17.70
2019-01-05T01:32:26.323Z,16.97
2019-01-05T01:35:17.232Z,16.23
2019-01-05T01:39:04.895Z,16.77
2019-01-05T01:42:11.864Z,15.23
2019-01-05T01:45:05.909Z,14.77
2019-01-05T01:47:52.515Z,15.07
2019-01-05T01:50:42.664Z,14.87
2019-01-05T01:53:41.715Z,13.77
2019-01-05T01:56:33.938Z,13.30
2019-01-05T01:59:29.816Z,12.87
2019-01-05T02:02:33.241Z,11.93
2019-01-05T02:05:42.854Z,12.00
2019-01-05T02:08:41.112Z,12.83
2019-01-05T02:11:38.273Z,12.93
2019-01-05T02:14:45.876Z,11.70
2019-01-05T02:18:16.526Z,13.50
2019-01-05T02:22:05.488Z,13.17
2019-01-05T02:26:02.302Z,13.33
2019-01-05T02:30:02.292Z,12.73
2019-01-05T02:34:15.082Z,13.97
2019-01-05T02:38:12.707Z,14.47
2019-01-05T02:42:01.620Z,13.73
2019-01-05T02:45:44.709Z,14.77
2019-01-05T02:49:40.459Z,13.93
2019-01-05T02:53:42.352Z,14.33
2019-01-05T02:57:45.205Z,14.77
2019-01-05T03:01:58.320Z,13.90
2019-01-05T03:05:28.559Z,14.07
2019-01-05T03:09:43.641Z,13.63
2019-01-05T03:13:31.177Z,13.90
2019-01-05T03:17:30.566Z,13.97
2019-01-05T03:21:14.433Z,13.53
2019-01-05T03:25:06.847Z,12.67
2019-01-05T03:29:25.662Z,14.10
2019-01-05T03:33:04.235Z,14.07
2019-01-05T03:36:46.352Z,14.90
2019-01-05T03:40:56.254Z,15.27
2019-01-05T03:44:37.451Z,14.27
2019-01-05T03:48:29.042Z,12.97
2019-01-05T03:52:07.653Z,13.37
2019-01-05T03:56:16.830Z,12.10
2019-01-05T03:59:52.878Z,12.00
2019-01-05T04:04:04.820Z,11.47
2019-01-05T04:07:58.261Z,11.90
2019-01-05T04:11:44.826Z,11.80
2019-01-05T04:15:55.509Z,11.80
2019-01-05T04:19:58.010Z,11.50
2019-01-05T04:23:47.299Z,11.90
2019-01-05T04:27:44.176Z,11.73
2019-01-05T04:31:16.931Z,11.33
2019-01-05T04:35:22.328Z,10.77
2019-01-05T04:39:03.395Z,10.93
2019-01-05T04:42:55.490Z,11.40
2019-01-05T04:46:43.736Z,10.40
2019-01-05T04:50:28.092Z,10.87
2019-01-05T04:54:40.965Z,10.23
2019-01-05T04:58:12.023Z,9.57
2019-01-05T05:01:48.803Z,9.93
2019-01-05T05:05:45.712Z,9.87
2019-01-05T05:09:20.005Z,10.30
2019-01-05T05:12:55.569Z,10.33
2019-01-05T05:16:38.999Z,10.60
2019-01-05T05:20:06.932Z,10.27
2019-01-05T05:24:15.859Z,11.10
2019-01-05T05:28:02.158Z,10.93
2019-01-05T05:32:05.612Z,11.47
2019-01-05T05:36:18.346Z,10.20
2019-01-05T05:40:22.480Z,10.70
2019-01-05T05:44:44.514Z,11.07
2019-01-05T05:48:23.394Z,10.33
2019-01-05T05:52:07.209Z,9.60
2019-01-05T05:55:49.481Z,8.87
2019-01-05T05:59:25.431Z,8.77
2019-01-05T06:03:06.928Z,7.13
2019-01-05T06:07:08.093Z,5.87
2019-01-05T06:11:16.524Z,5.77
2019-01-05T06:15:15.833Z,5.60
2019-01-05T06:18:54.581Z,4.83
2019-01-05T06:23:07.645Z,4.27
2019-01-05T06:27:01.484Z,4.10
2019-01-05T06:30:52.789Z,3.53
2019-01-05T06:34:43.929Z,2.93
2019-01-05T06:38:18.098Z,3.00
2019-01-05T06:42:22.602Z,2.70
2019-01-05T06:46:35.459Z,3.47
2019-01-05T06:50:33.273Z,2.67
2019-01-05T06:54:35.604Z,3.20
2019-01-05T06:58:19.841Z,3.30
2019-01-05T07:02:14.747Z,2.90
2019-01-05T07:06:13.634Z,3.20
2019-01-05T07:10:22.816Z,3.97
2019-01-05T07:14:22.369Z,3.50
2019-01-05T07:18:30.987Z,3.73
2019-01-05T07:22:46.555Z,3.57
2019-01-05T07:26:31.637Z,3.13
2019-01-05T07:30:14.796Z,4.10
2019-01-05T07:34:01.034Z,3.60
2019-01-05T07:37:52.081Z,4.10
2019-01-05T07:42:00.557Z,4.73
2019-01-05T07:45:30.853Z,4.33
2019-01-05T07:49:30.163Z,4.07
2019-01-05T07:53:42.429Z,3.77
2019-01-05T07:57:43.967Z,4.20
2019-01-05T08:01:36.252Z,4.37
2019-01-05T08:05:23.127Z,4.63
2019-01-05T08:09:07.473Z,4.20
2019-01-05T08:12:48.710Z,3.87
2019-01-05T08:17:17.134Z,3.90
2019-01-05T08:21:08.301Z,4.17
2019-01-05T08:24:55.963Z,4.13
2019-01-05T08:28:51.589Z,4.00
2019-01-05T08:32:56.561Z,4.80
2019-01-05T08:36:56.170Z,5.10
2019-01-05T08:40:41.057Z,4.57
2019-01-05T08:45:06.149Z,4.57
2019-01-05T08:48:40.031Z,4.67
2019-01-05T08:52:06.582Z,5.07
2019-01-05T08:56:04.871Z,5.30
2019-01-05T08:59:49.547Z,4.30
2019-01-05T09:03:55.815Z,4.13
2019-01-05T09:08:06.052Z,4.60
2019-01-05T09:11:43.467Z,4.80
2019-01-05T09:16:10.634Z,4.87
2019-01-05T09:20:02.368Z,5.00
2019-01-05T09:24:10.398Z,5.33
2019-01-05T09:27:58.236Z,7.27
2019-01-05T09:31:56.394Z,6.47
2019-01-05T09:36:08.471Z,5.40
2019-01-05T09:40:17.623Z,4.80
2019-01-05T09:44:21.551Z,5.00
2019-01-05T09:48:04.839Z,5.43
2019-01-05T09:52:09.710Z,4.60
2019-01-05T09:56:09.927Z,4.30
2019-01-05T09:59:42.212Z,3.97
2019-01-05T10:03:54.109Z,4.37
2019-01-05T10:08:03.401Z,5.17
2019-01-05T10:12:02.721Z,5.43
2019-01-05T10:15:45.196Z,5.00
2019-01-05T10:19:19.857Z,4.30
2019-01-05T10:22:58.588Z,4.23
2019-01-05T10:27:12.195Z,5.00
2019-01-05T10:31:04.230Z,4.63
2019-01-05T10:34:53.069Z,4.60
2019-01-05T10:38:51.688Z,5.60
2019-01-05T10:42:43.359Z,4.97
2019-01-05T10:46:37.292Z,5.20
2019-01-05T10:50:32.498Z,5.17
2019-01-05T10:54:06.479Z,5.17
2019-01-05T10:57:53.114Z,6.27
2019-01-05T11:01:40.687Z,5.80
2019-01-05T11:05:40.622Z,6.27
2019-01-05T11:09:13.836Z,5.73
2019-01-05T11:13:11.999Z,5.37
2019-01-05T11:16:54.019Z,4.87
2019-01-05T11:20:49.729Z,5.30
2019-01-05T11:24:36.581Z,4.83
2019-01-05T11:28:21.587Z,4.87
2019-01-05T11:32:15.401Z,4.90
2019-01-05T11:36:08.116Z,4.60
2019-01-05T11:43:48.589Z,5.37
2019-01-05T11:47:45.627Z,4.13
2019-01-05T11:51:51.238Z,4.33
2019-01-05T11:55:36.520Z,4.07
2019-01-05T11:59:14.249Z,4.40
2019-01-05T12:03:36.347Z,4.47
2019-01-05T12:07:53.741Z,4.60
2019-01-05T12:11:55.750Z,4.17
2019-01-05T12:15:42.255Z,4.97
2019-01-05T12:24:04.483Z,5.07
2019-01-05T12:27:56.648Z,4.70
2019-01-05T12:32:11.077Z,4.60
2019-01-05T12:36:07.420Z,4.97
2019-01-05T12:40:14.454Z,4.93
2019-01-05T12:43:54.396Z,5.67
2019-01-05T12:48:04.392Z,5.03
2019-01-05T12:51:57.473Z,4.37
2019-01-05T12:56:16.323Z,4.70
2019-01-05T13:00:15.095Z,4.13
2019-01-05T13:04:45.678Z,5.53
2019-01-05T13:08:22.759Z,4.20
2019-01-05T13:12:08.055Z,4.77
2019-01-05T13:15:52.457Z,4.00
2019-01-05T13:19:51.549Z,4.07
2019-01-05T13:23:52.908Z,4.07
2019-01-05T13:27:43.055Z,4.27
2019-01-05T13:31:45.405Z,3.23
2019-01-05T13:35:21.783Z,3.43
2019-01-05T13:39:16.058Z,3.70
2019-01-05T13:43:07.430Z,2.97
2019-01-05T13:46:52.745Z,3.23
2019-01-05T13:50:49.579Z,4.20
2019-01-05T13:54:06.875Z,3.20
2019-01-05T13:57:19.711Z,3.23
2019-01-05T14:00:21.212Z,3.60
2019-01-05T14:03:13.626Z,3.67
2019-01-05T14:06:04.460Z,3.63
2019-01-05T14:08:54.008Z,3.57
2019-01-05T14:12:02.780Z,3.60
2019-01-05T14:14:53.876Z,4.23
2019-01-05T14:17:44.504Z,3.57
2019-01-05T14:20:47.295Z,4.10
2019-01-05T14:23:45.532Z,4.23
2019-01-05T14:26:36.615Z,4.47
2019-01-05T14:29:35.497Z,4.87
2019-01-05T14:32:35.500Z,4.57
2019-01-05T14:35:31.515Z,4.13
2019-01-05T14:38:31.152Z,3.67
2019-01-05T14:41:17.684Z,3.60
2019-01-05T14:44:06.451Z,3.17
2019-01-05T14:47:00.362Z,3.70
2019-01-05T14:49:54.925Z,3.50
2019-01-05T14:52:40.519Z,3.90
2019-01-05T14:55:43.268Z,4.23
2019-01-05T14:58:49.010Z,3.80
2019-01-05T15:01:38.279Z,4.10
2019-01-05T15:04:32.233Z,3.70
2019-01-05T15:07:22.146Z,3.43
2019-01-05T15:10:11.734Z,3.27
2019-01-05T15:13:05.347Z,2.60
2019-01-05T15:15:59.025Z,2.43
2019-01-05T15:18:55.774Z,2.90
2019-01-05T15:21:42.335Z,3.00
2019-01-05T15:24:31.772Z,3.37
2019-01-05T15:27:25.508Z,3.60
2019-01-05T15:30:14.890Z,4.70
2019-01-05T15:33:04.147Z,4.40
2019-01-05T15:36:01.238Z,4.20
2019-01-05T15:38:52.058Z,4.10
2019-01-05T15:41:46.763Z,3.93
2019-01-05T15:44:33.761Z,3.07
2019-01-05T15:47:23.194Z,3.10
2019-01-05T15:50:12.288Z,3.40
2019-01-05T15:53:18.305Z,2.97
2019-01-05T15:56:07.259Z,3.00
2019-01-05T15:58:59.484Z,2.80
2019-01-05T16:01:48.931Z,3.10
2019-01-05T16:04:44.480Z,3.20
2019-01-05T16:07:39.234Z,3.27
2019-01-05T16:14:44.412Z,2.90
2019-01-05T16:17:50.469Z,2.80
2019-01-05T16:21:01.685Z,3.63
2019-01-05T16:24:01.597Z,3.50
2019-01-05T16:26:58.899Z,3.90
2019-01-05T16:29:56.796Z,3.90
2019-01-05T16:32:46.716Z,4.07
2019-01-05T16:35:35.871Z,4.17
2019-01-05T16:38:22.269Z,4.80
2019-01-05T16:41:31.063Z,4.43
2019-01-05T16:44:42.355Z,4.77
2019-01-05T16:47:38.993Z,4.50
2019-01-05T16:50:28.497Z,4.30
2019-01-05T16:53:15.080Z,4.50
2019-01-05T16:56:05.901Z,4.70
2019-01-05T16:58:55.447Z,4.90
2019-01-05T17:01:45.230Z,5.10
2019-01-05T17:04:39.271Z,4.60
2019-01-05T17:07:28.604Z,4.67
2019-01-05T17:10:17.963Z,5.23
2019-01-05T17:13:07.595Z,6.13
2019-01-05T17:16:07.923Z,5.97
2019-01-05T17:19:03.309Z,6.47
2019-01-05T17:21:56.907Z,6.90
2019-01-05T17:24:46.118Z,6.10
2019-01-05T17:27:35.322Z,6.47
2019-01-05T17:30:25.296Z,6.90
2019-01-05T17:33:14.511Z,7.30
2019-01-05T17:36:05.304Z,6.60
2019-01-05T17:38:50.343Z,6.67
2019-01-05T17:41:43.907Z,6.03
2019-01-05T17:44:38.196Z,5.63
2019-01-05T17:47:27.450Z,6.17
2019-01-05T17:50:30.279Z,6.43
2019-01-05T17:53:24.132Z,6.37
2019-01-05T17:56:27.064Z,6.00
2019-01-05T17:59:28.992Z,5.80
2019-01-05T18:02:37.683Z,5.50
2019-01-05T18:05:34.423Z,6.27
2019-01-05T18:08:43.234Z,6.00
2019-01-05T18:11:36.364Z,7.23
2019-01-05T18:14:22.483Z,7.10
2019-01-05T18:17:16.130Z,6.90
2019-01-05T18:20:19.132Z,6.10
2019-01-05T18:23:22.208Z,6.37
2019-01-05T18:26:29.393Z,6.80
2019-01-05T18:29:29.472Z,5.83
2019-01-05T18:32:32.374Z,5.80
2019-01-05T18:35:22.453Z,6.10
2019-01-05T18:38:11.951Z,6.00
2019-01-05T18:41:14.976Z,6.20
2019-01-05T18:44:04.431Z,6.63
2019-01-05T18:46:53.933Z,7.00
2019-01-05T18:49:56.958Z,7.40
2019-01-05T18:52:47.994Z,7.50
2019-01-05T18:55:37.500Z,7.20
2019-01-05T18:58:29.161Z,6.40
2019-01-05T19:01:38.104Z,7.00
2019-01-05T19:04:40.740Z,6.20
2019-01-05T19:07:30.182Z,6.00
2019-01-05T19:10:21.042Z,6.50
2019-01-05T19:13:14.847Z,6.13
2019-01-05T19:16:20.743Z,6.37
2019-01-05T19:19:07.249Z,6.87
2019-01-05T19:22:03.970Z,6.97
2019-01-05T19:24:53.633Z,6.67
2019-01-05T19:27:43.191Z,6.57
2019-01-05T19:30:32.752Z,7.13
2019-01-05T19:33:35.916Z,7.23
2019-01-05T19:36:25.165Z,7.70
2019-01-05T19:39:14.831Z,7.37
2019-01-05T19:42:17.780Z,7.30
2019-01-05T19:45:07.479Z,7.73
2019-01-05T19:47:57.523Z,7.50
2019-01-05T19:50:47.152Z,8.00
2019-01-05T19:53:36.685Z,7.37
2019-01-05T19:56:27.996Z,7.30
2019-01-05T19:59:17.633Z,7.93
2019-01-05T20:02:09.038Z,7.17
2019-01-05T20:05:09.687Z,6.47
2019-01-05T20:08:15.673Z,7.30
2019-01-05T20:11:17.420Z,6.87
2019-01-05T20:14:11.774Z,6.60
2019-01-05T20:17:02.724Z,6.63
2019-01-05T20:19:48.105Z,6.33
2019-01-05T20:22:37.640Z,6.07
2019-01-05T20:25:37.555Z,6.00
2019-01-05T20:28:28.740Z,6.30
2019-01-05T20:31:17.989Z,6.20
2019-01-05T20:34:09.153Z,6.37
2019-01-05T20:37:03.653Z,6.00
2019-01-05T20:39:55.832Z,6.00
2019-01-05T20:43:01.908Z,6.50
2019-01-05T20:45:51.129Z,6.90
2019-01-05T20:48:42.236Z,6.47
2019-01-05T20:51:31.431Z,6.07
2019-01-05T20:54:31.430Z,6.30
2019-01-05T20:57:33.382Z,6.50
2019-01-05T21:00:30.670Z,6.10
2019-01-05T21:03:24.288Z,6.03
2019-01-05T21:06:15.056Z,5.83
2019-01-05T21:09:05.834Z,5.70
2019-01-05T21:11:55.103Z,5.30
2019-01-05T21:14:48.449Z,5.50
2019-01-05T21:17:40.297Z,5.10
2019-01-05T21:20:37.225Z,5.60
2019-01-05T21:23:26.402Z,6.23
2019-01-05T21:26:24.374Z,5.83
2019-01-05T21:29:09.930Z,6.47
2019-01-05T21:31:59.411Z,6.43
2019-01-05T21:35:04.936Z,7.00
2019-01-05T21:38:04.701Z,6.97
2019-01-05T21:41:13.371Z,6.93
2019-01-05T21:44:13.011Z,6.90
2019-01-05T21:47:02.623Z,6.00
2019-01-05T21:50:01.537Z,5.83
2019-01-05T21:52:50.984Z,6.03
2019-01-05T21:55:41.712Z,5.53
2019-01-05T21:58:32.494Z,5.57
2019-01-05T22:01:24.212Z,5.17
2019-01-05T22:04:26.962Z,5.77
2019-01-05T22:07:23.625Z,5.50
2019-01-05T22:10:13.221Z,5.47
2019-01-05T22:13:10.146Z,6.30
2019-01-05T22:16:12.988Z,6.30
2019-01-05T22:19:06.561Z,6.60
2019-01-05T22:21:56.109Z,5.77
2019-01-05T22:24:45.574Z,6.87
2019-01-05T22:27:25.310Z,6.93
2019-01-05T22:30:21.993Z,6.90
2019-01-05T22:33:24.738Z,7.70
2019-01-05T22:36:13.930Z,6.83
2019-01-05T22:39:00.251Z,6.27
2019-01-05T22:42:01.033Z,6.67
2019-01-05T22:44:50.699Z,8.00
2019-01-05T22:47:35.645Z,7.13
2019-01-05T22:50:25.427Z,7.17
2019-01-05T22:53:32.759Z,6.50
2019-01-05T22:56:33.417Z,6.00
2019-01-05T22:59:24.721Z,6.83
2019-01-05T23:02:08.357Z,7.20
2019-01-05T23:05:11.488Z,6.03
2019-01-05T23:08:00.955Z,6.33
2019-01-05T23:10:50.424Z,6.07
2019-01-05T23:13:41.181Z,6.10
2019-01-05T23:16:29.575Z,6.10
2019-01-05T23:19:26.087Z,5.67
2019-01-05T23:22:33.181Z,6.00
2019-01-05T23:25:24.413Z,6.00
2019-01-05T23:28:18.478Z,6.60
2019-01-05T23:31:09.321Z,5.63
2019-01-05T23:34:05.821Z,6.00
2019-01-05T23:37:05.624Z,5.97
2019-01-05T23:39:56.538Z,6.00
2019-01-05T23:42:51.915Z,6.40
2019-01-05T23:45:41.444Z,6.53
2019-01-05T23:48:30.792Z,7.33
2019-01-05T23:51:21.615Z,7.37
2019-01-05T23:54:12.892Z,7.13
2019-01-05T23:57:03.649Z,7.47
2019-01-05T23:59:54.945Z,6.83
